sensor_id;sensor_type;location;lat;lon;timestamp;P1;durP1;ratioP1;P2;durP2;ratioP2
52396;SDS011;38322;53.108;6.308;2023-11-19T06:01:34;31.33;;;7.47;;
52396;SDS011;38322;53.108;6.308;2023-11-19T06:04:00;48.22;;;8.48;;
52396;SDS011;38322;53.108;6.308;2023-11-19T06:06:27;31.05;;;7.00;;
52396;SDS011;38322;53.108;6.308;2023-11-19T06:08:53;42.28;;;9.77;;
52396;SDS011;38322;53.108;6.308;2023-11-19T06:11:20;44.83;;;10.73;;
52396;SDS011;38322;53.108;6.308;2023-11-19T06:13:46;34.28;;;8.43;;
52396;SDS011;38322;53.108;6.308;2023-11-19T06:16:13;39.95;;;8.10;;
52396;SDS011;38322;53.108;6.308;2023-11-19T06:18:39;44.42;;;9.43;;
52396;SDS011;38322;53.108;6.308;2023-11-19T06:21:06;37.58;;;7.43;;
52396;SDS011;38322;53.108;6.308;2023-11-19T06:23:32;55.75;;;12.02;;
52396;SDS011;38322;53.108;6.308;2023-11-19T06:25:58;43.53;;;7.10;;
52396;SDS011;38322;53.108;6.308;2023-11-19T06:28:24;44.42;;;9.60;;
52396;SDS011;38322;53.108;6.308;2023-11-19T06:30:50;34.22;;;6.90;;
52396;SDS011;38322;53.108;6.308;2023-11-19T06:33:16;47.75;;;9.35;;
52396;SDS011;38322;53.108;6.308;2023-11-19T06:35:41;39.50;;;10.35;;
52396;SDS011;38322;53.108;6.308;2023-11-19T06:38:07;40.28;;;9.00;;
52396;SDS011;38322;53.108;6.308;2023-11-19T06:40:33;43.17;;;7.15;;
52396;SDS011;38322;53.108;6.308;2023-11-19T06:43:00;37.83;;;8.82;;
52396;SDS011;38322;53.108;6.308;2023-11-19T06:45:28;43.05;;;9.35;;
52396;SDS011;38322;53.108;6.308;2023-11-19T06:47:54;46.50;;;9.45;;
52396;SDS011;38322;53.108;6.308;2023-11-19T06:50:20;48.63;;;9.82;;
52396;SDS011;38322;53.108;6.308;2023-11-19T06:52:46;43.33;;;9.18;;
52396;SDS011;38322;53.108;6.308;2023-11-19T06:55:12;47.17;;;11.50;;
52396;SDS011;38322;53.108;6.308;2023-11-19T06:57:38;46.42;;;8.45;;
52396;SDS011;38322;53.108;6.308;2023-11-19T07:00:05;36.63;;;8.55;;
52396;SDS011;38322;53.108;6.308;2023-11-19T07:02:31;51.10;;;8.40;;
52396;SDS011;38322;53.108;6.308;2023-11-19T07:04:57;45.42;;;8.63;;
52396;SDS011;38322;53.108;6.308;2023-11-19T07:07:23;36.83;;;8.82;;
52396;SDS011;38322;53.108;6.308;2023-11-19T07:09:49;33.47;;;7.78;;
52396;SDS011;38322;53.108;6.308;2023-11-19T07:12:15;33.88;;;8.73;;
52396;SDS011;38322;53.108;6.308;2023-11-19T07:14:41;27.25;;;6.97;;
52396;SDS011;38322;53.108;6.308;2023-11-19T07:17:07;48.83;;;7.00;;
52396;SDS011;38322;53.108;6.308;2023-11-19T07:19:34;35.92;;;8.07;;
52396;SDS011;38322;53.108;6.308;2023-11-19T07:22:01;53.33;;;10.43;;
52396;SDS011;38322;53.108;6.308;2023-11-19T07:24:27;45.20;;;10.57;;
52396;SDS011;38322;53.108;6.308;2023-11-19T07:26:54;44.85;;;7.65;;
52396;SDS011;38322;53.108;6.308;2023-11-19T07:29:20;36.17;;;9.88;;
52396;SDS011;38322;53.108;6.308;2023-11-19T07:31:48;40.05;;;8.35;;
52396;SDS011;38322;53.108;6.308;2023-11-19T07:34:14;41.17;;;8.63;;
52396;SDS011;38322;53.108;6.308;2023-11-19T07:36:40;44.40;;;8.57;;
52396;SDS011;38322;53.108;6.308;2023-11-19T07:39:06;41.85;;;8.10;;
52396;SDS011;38322;53.108;6.308;2023-11-19T07:41:33;45.67;;;8.98;;
52396;SDS011;38322;53.108;6.308;2023-11-19T07:44:00;40.65;;;8.70;;
52396;SDS011;38322;53.108;6.308;2023-11-19T07:46:26;34.78;;;8.68;;
52396;SDS011;38322;53.108;6.308;2023-11-19T07:48:52;47.28;;;9.65;;
52396;SDS011;38322;53.108;6.308;2023-11-19T07:51:18;39.55;;;8.75;;
52396;SDS011;38322;53.108;6.308;2023-11-19T07:53:44;31.45;;;7.47;;
52396;SDS011;38322;53.108;6.308;2023-11-19T07:56:09;47.10;;;9.20;;
52396;SDS011;38322;53.108;6.308;2023-11-19T07:58:35;47.28;;;7.70;;
52396;SDS011;38322;53.108;6.308;2023-11-19T08:01:01;42.15;;;8.43;;
52396;SDS011;38322;53.108;6.308;2023-11-19T08:03:27;33.78;;;8.80;;
52396;SDS011;38322;53.108;6.308;2023-11-19T08:05:55;46.55;;;9.13;;
52396;SDS011;38322;53.108;6.308;2023-11-19T08:08:22;34.13;;;7.07;;
52396;SDS011;38322;53.108;6.308;2023-11-19T08:10:48;41.67;;;9.30;;
52396;SDS011;38322;53.108;6.308;2023-11-19T08:13:16;38.38;;;8.45;;
52396;SDS011;38322;53.108;6.308;2023-11-19T08:15:43;27.02;;;7.57;;
52396;SDS011;38322;53.108;6.308;2023-11-19T08:18:10;33.88;;;7.43;;
52396;SDS011;38322;53.108;6.308;2023-11-19T08:20:35;43.83;;;9.55;;
52396;SDS011;38322;53.108;6.308;2023-11-19T08:23:02;32.28;;;7.28;;
52396;SDS011;38322;53.108;6.308;2023-11-19T08:25:30;37.67;;;8.75;;
52396;SDS011;38322;53.108;6.308;2023-11-19T08:27:56;42.28;;;8.90;;
52396;SDS011;38322;53.108;6.308;2023-11-19T08:30:22;40.72;;;6.82;;
52396;SDS011;38322;53.108;6.308;2023-11-19T08:32:47;52.15;;;8.07;;
52396;SDS011;38322;53.108;6.308;2023-11-19T08:35:13;29.40;;;6.93;;
52396;SDS011;38322;53.108;6.308;2023-11-19T08:37:41;48.17;;;9.98;;
52396;SDS011;38322;53.108;6.308;2023-11-19T08:40:07;47.20;;;7.93;;
52396;SDS011;38322;53.108;6.308;2023-11-19T08:42:33;46.40;;;9.85;;
52396;SDS011;38322;53.108;6.308;2023-11-19T08:44:59;34.38;;;7.25;;
52396;SDS011;38322;53.108;6.308;2023-11-19T08:47:25;46.78;;;10.07;;
52396;SDS011;38322;53.108;6.308;2023-11-19T08:49:51;38.80;;;7.13;;
52396;SDS011;38322;53.108;6.308;2023-11-19T08:52:18;48.00;;;8.18;;
52396;SDS011;38322;53.108;6.308;2023-11-19T08:54:44;37.70;;;8.23;;
52396;SDS011;38322;53.108;6.308;2023-11-19T08:57:10;35.88;;;8.13;;
52396;SDS011;38322;53.108;6.308;2023-11-19T08:59:36;44.45;;;8.13;;
52396;SDS011;38322;53.108;6.308;2023-11-19T09:02:04;29.33;;;7.55;;
52396;SDS011;38322;53.108;6.308;2023-11-19T09:04:30;49.95;;;7.32;;
52396;SDS011;38322;53.108;6.308;2023-11-19T09:06:58;50.50;;;8.77;;
52396;SDS011;38322;53.108;6.308;2023-11-19T09:09:24;44.05;;;8.25;;
52396;SDS011;38322;53.108;6.308;2023-11-19T09:11:50;40.67;;;7.75;;
52396;SDS011;38322;53.108;6.308;2023-11-19T09:14:16;39.13;;;7.88;;
52396;SDS011;38322;53.108;6.308;2023-11-19T09:16:43;35.33;;;7.65;;
52396;SDS011;38322;53.108;6.308;2023-11-19T09:19:09;39.97;;;8.48;;
52396;SDS011;38322;53.108;6.308;2023-11-19T09:21:35;39.17;;;7.47;;
52396;SDS011;38322;53.108;6.308;2023-11-19T09:24:04;39.55;;;7.55;;
52396;SDS011;38322;53.108;6.308;2023-11-19T09:26:30;35.78;;;9.63;;
52396;SDS011;38322;53.108;6.308;2023-11-19T09:28:56;45.38;;;8.45;;
52396;SDS011;38322;53.108;6.308;2023-11-19T09:31:22;44.15;;;10.27;;
52396;SDS011;38322;53.108;6.308;2023-11-19T09:33:47;40.25;;;8.75;;
52396;SDS011;38322;53.108;6.308;2023-11-19T09:36:13;34.33;;;6.38;;
52396;SDS011;38322;53.108;6.308;2023-11-19T09:38:40;32.17;;;7.55;;
52396;SDS011;38322;53.108;6.308;2023-11-19T09:41:06;33.20;;;7.95;;
52396;SDS011;38322;53.108;6.308;2023-11-19T09:43:34;41.53;;;8.35;;
52396;SDS011;38322;53.108;6.308;2023-11-19T09:46:04;42.97;;;8.48;;
52396;SDS011;38322;53.108;6.308;2023-11-19T09:48:33;39.00;;;9.13;;
52396;SDS011;38322;53.108;6.308;2023-11-19T09:51:00;40.20;;;8.80;;
52396;SDS011;38322;53.108;6.308;2023-11-19T09:53:26;35.20;;;8.43;;
52396;SDS011;38322;53.108;6.308;2023-11-19T09:55:52;39.60;;;7.43;;
52396;SDS011;38322;53.108;6.308;2023-11-19T09:58:19;32.53;;;9.95;;
52396;SDS011;38322;53.108;6.308;2023-11-19T10:00:45;44.42;;;9.05;;
52396;SDS011;38322;53.108;6.308;2023-11-19T10:03:11;37.90;;;6.03;;
52396;SDS011;38322;53.108;6.308;2023-11-19T10:05:38;34.42;;;7.35;;
52396;SDS011;38322;53.108;6.308;2023-11-19T10:08:05;42.38;;;9.02;;
52396;SDS011;38322;53.108;6.308;2023-11-19T10:10:32;48.58;;;8.98;;
52396;SDS011;38322;53.108;6.308;2023-11-19T10:12:57;39.85;;;8.07;;
52396;SDS011;38322;53.108;6.308;2023-11-19T10:15:26;31.30;;;7.07;;
52396;SDS011;38322;53.108;6.308;2023-11-19T10:17:54;46.95;;;7.90;;
52396;SDS011;38322;53.108;6.308;2023-11-19T10:20:21;39.53;;;8.15;;
52396;SDS011;38322;53.108;6.308;2023-11-19T10:22:47;34.47;;;7.25;;
52396;SDS011;38322;53.108;6.308;2023-11-19T10:25:23;32.20;;;6.15;;
52396;SDS011;38322;53.108;6.308;2023-11-19T10:27:50;36.33;;;9.85;;
52396;SDS011;38322;53.108;6.308;2023-11-19T10:30:21;35.95;;;6.60;;
52396;SDS011;38322;53.108;6.308;2023-11-19T10:35:32;32.33;;;6.68;;
52396;SDS011;38322;53.108;6.308;2023-11-19T10:38:00;43.15;;;8.02;;
52396;SDS011;38322;53.108;6.308;2023-11-19T10:40:38;39.22;;;9.20;;
52396;SDS011;38322;53.108;6.308;2023-11-19T10:43:05;35.47;;;6.97;;
52396;SDS011;38322;53.108;6.308;2023-11-19T10:45:33;37.53;;;7.97;;
52396;SDS011;38322;53.108;6.308;2023-11-19T10:47:59;36.97;;;7.80;;
52396;SDS011;38322;53.108;6.308;2023-11-19T10:50:27;37.35;;;6.90;;
52396;SDS011;38322;53.108;6.308;2023-11-19T10:52:55;38.33;;;7.47;;
52396;SDS011;38322;53.108;6.308;2023-11-19T10:55:29;39.75;;;6.75;;
52396;SDS011;38322;53.108;6.308;2023-11-19T10:57:58;36.10;;;7.40;;
52396;SDS011;38322;53.108;6.308;2023-11-19T11:00:26;25.80;;;6.47;;
52396;SDS011;38322;53.108;6.308;2023-11-19T11:03:00;34.00;;;8.20;;
52396;SDS011;38322;53.108;6.308;2023-11-19T11:05:27;26.02;;;5.13;;
52396;SDS011;38322;53.108;6.308;2023-11-19T11:07:57;34.67;;;6.65;;
52396;SDS011;38322;53.108;6.308;2023-11-19T11:10:25;27.88;;;6.70;;
52396;SDS011;38322;53.108;6.308;2023-11-19T11:12:52;36.38;;;7.95;;
52396;SDS011;38322;53.108;6.308;2023-11-19T11:17:52;25.02;;;6.10;;
52396;SDS011;38322;53.108;6.308;2023-11-19T11:20:23;23.65;;;6.88;;
52396;SDS011;38322;53.108;6.308;2023-11-19T11:22:53;32.83;;;6.28;;
52396;SDS011;38322;53.108;6.308;2023-11-19T11:28:05;28.48;;;7.80;;
52396;SDS011;38322;53.108;6.308;2023-11-19T11:30:54;39.65;;;8.23;;
52396;SDS011;38322;53.108;6.308;2023-11-19T11:33:39;32.35;;;6.00;;
52396;SDS011;38322;53.108;6.308;2023-11-19T11:36:22;40.47;;;7.32;;
52396;SDS011;38322;53.108;6.308;2023-11-19T11:38:49;32.05;;;7.00;;
52396;SDS011;38322;53.108;6.308;2023-11-19T11:41:16;28.65;;;7.60;;
52396;SDS011;38322;53.108;6.308;2023-11-19T11:43:50;32.53;;;6.05;;
52396;SDS011;38322;53.108;6.308;2023-11-19T11:49:06;44.00;;;7.15;;
52396;SDS011;38322;53.108;6.308;2023-11-19T11:54:11;39.22;;;5.90;;
52396;SDS011;38322;53.108;6.308;2023-11-19T11:57:08;28.23;;;7.07;;
52396;SDS011;38322;53.108;6.308;2023-11-19T12:02:05;36.88;;;8.98;;
52396;SDS011;38322;53.108;6.308;2023-11-19T12:04:34;22.23;;;5.85;;
52396;SDS011;38322;53.108;6.308;2023-11-19T12:07:05;40.40;;;7.57;;
52396;SDS011;38322;53.108;6.308;2023-11-19T12:09:32;32.60;;;5.93;;
52396;SDS011;38322;53.108;6.308;2023-11-19T12:12:07;29.58;;;6.20;;
52396;SDS011;38322;53.108;6.308;2023-11-19T12:20:00;35.45;;;6.60;;
52396;SDS011;38322;53.108;6.308;2023-11-19T12:22:26;37.67;;;8.80;;
52396;SDS011;38322;53.108;6.308;2023-11-19T12:24:53;35.35;;;7.45;;
52396;SDS011;38322;53.108;6.308;2023-11-19T12:27:20;39.05;;;6.60;;
52396;SDS011;38322;53.108;6.308;2023-11-19T12:29:48;29.50;;;7.50;;
52396;SDS011;38322;53.108;6.308;2023-11-19T12:32:14;27.10;;;6.60;;
52396;SDS011;38322;53.108;6.308;2023-11-19T12:34:40;43.58;;;9.40;;
52396;SDS011;38322;53.108;6.308;2023-11-19T12:37:05;43.17;;;8.30;;
52396;SDS011;38322;53.108;6.308;2023-11-19T12:39:31;20.90;;;4.88;;
52396;SDS011;38322;53.108;6.308;2023-11-19T12:41:57;24.80;;;6.75;;
52396;SDS011;38322;53.108;6.308;2023-11-19T12:44:24;35.90;;;7.28;;
52396;SDS011;38322;53.108;6.308;2023-11-19T12:49:26;35.80;;;7.07;;
52396;SDS011;38322;53.108;6.308;2023-11-19T12:51:52;30.02;;;7.35;;
52396;SDS011;38322;53.108;6.308;2023-11-19T12:54:18;24.23;;;3.92;;
52396;SDS011;38322;53.108;6.308;2023-11-19T12:56:53;30.45;;;6.25;;
52396;SDS011;38322;53.108;6.308;2023-11-19T12:59:19;29.98;;;6.10;;
52396;SDS011;38322;53.108;6.308;2023-11-19T13:01:54;29.17;;;6.50;;
52396;SDS011;38322;53.108;6.308;2023-11-19T13:04:21;33.90;;;5.78;;
52396;SDS011;38322;53.108;6.308;2023-11-19T13:06:49;26.65;;;6.60;;
52396;SDS011;38322;53.108;6.308;2023-11-19T13:09:22;25.38;;;6.28;;
52396;SDS011;38322;53.108;6.308;2023-11-19T13:11:49;27.30;;;6.22;;
52396;SDS011;38322;53.108;6.308;2023-11-19T13:14:16;34.45;;;7.15;;
52396;SDS011;38322;53.108;6.308;2023-11-19T13:16:42;22.98;;;5.47;;
52396;SDS011;38322;53.108;6.308;2023-11-19T13:19:08;31.85;;;6.00;;
52396;SDS011;38322;53.108;6.308;2023-11-19T13:21:35;27.65;;;8.88;;
52396;SDS011;38322;53.108;6.308;2023-11-19T13:24:02;28.50;;;4.35;;
52396;SDS011;38322;53.108;6.308;2023-11-19T13:26:28;21.35;;;5.93;;
52396;SDS011;38322;53.108;6.308;2023-11-19T13:28:54;23.73;;;5.97;;
52396;SDS011;38322;53.108;6.308;2023-11-19T13:31:19;29.83;;;5.47;;
52396;SDS011;38322;53.108;6.308;2023-11-19T13:33:45;21.80;;;5.07;;
52396;SDS011;38322;53.108;6.308;2023-11-19T13:36:11;29.48;;;6.53;;
52396;SDS011;38322;53.108;6.308;2023-11-19T13:38:37;27.05;;;5.57;;
52396;SDS011;38322;53.108;6.308;2023-11-19T13:41:03;24.92;;;5.05;;
52396;SDS011;38322;53.108;6.308;2023-11-19T13:43:30;29.42;;;6.50;;
52396;SDS011;38322;53.108;6.308;2023-11-19T13:45:56;30.25;;;6.32;;
52396;SDS011;38322;53.108;6.308;2023-11-19T13:48:24;31.38;;;6.18;;
52396;SDS011;38322;53.108;6.308;2023-11-19T13:50:51;28.65;;;5.60;;
52396;SDS011;38322;53.108;6.308;2023-11-19T13:53:17;25.80;;;5.72;;
52396;SDS011;38322;53.108;6.308;2023-11-19T13:55:43;28.83;;;5.60;;
52396;SDS011;38322;53.108;6.308;2023-11-19T13:58:09;28.10;;;6.10;;
52396;SDS011;38322;53.108;6.308;2023-11-19T14:00:35;27.63;;;6.82;;
52396;SDS011;38322;53.108;6.308;2023-11-19T14:03:02;23.23;;;5.75;;
52396;SDS011;38322;53.108;6.308;2023-11-19T14:05:28;25.00;;;5.70;;
52396;SDS011;38322;53.108;6.308;2023-11-19T14:07:53;25.52;;;4.35;;
52396;SDS011;38322;53.108;6.308;2023-11-19T14:10:21;22.20;;;5.05;;
52396;SDS011;38322;53.108;6.308;2023-11-19T14:12:48;32.85;;;7.20;;
52396;SDS011;38322;53.108;6.308;2023-11-19T14:15:15;23.50;;;6.00;;
52396;SDS011;38322;53.108;6.308;2023-11-19T14:17:42;35.28;;;6.47;;
52396;SDS011;38322;53.108;6.308;2023-11-19T14:20:08;26.02;;;6.75;;
52396;SDS011;38322;53.108;6.308;2023-11-19T14:22:40;36.42;;;6.85;;
52396;SDS011;38322;53.108;6.308;2023-11-19T14:25:06;24.77;;;5.65;;
52396;SDS011;38322;53.108;6.308;2023-11-19T14:27:35;37.45;;;6.90;;
52396;SDS011;38322;53.108;6.308;2023-11-19T14:30:03;30.17;;;5.45;;
52396;SDS011;38322;53.108;6.308;2023-11-19T14:32:31;32.78;;;6.78;;
52396;SDS011;38322;53.108;6.308;2023-11-19T14:34:57;28.02;;;6.28;;
52396;SDS011;38322;53.108;6.308;2023-11-19T14:37:22;33.15;;;7.22;;
52396;SDS011;38322;53.108;6.308;2023-11-19T14:39:48;22.80;;;5.50;;
52396;SDS011;38322;53.108;6.308;2023-11-19T14:42:16;34.50;;;8.60;;
52396;SDS011;38322;53.108;6.308;2023-11-19T14:44:42;28.52;;;5.53;;
52396;SDS011;38322;53.108;6.308;2023-11-19T14:47:08;31.58;;;5.40;;
52396;SDS011;38322;53.108;6.308;2023-11-19T14:49:34;27.08;;;5.78;;
52396;SDS011;38322;53.108;6.308;2023-11-19T14:52:02;30.30;;;4.90;;
52396;SDS011;38322;53.108;6.308;2023-11-19T14:54:28;32.78;;;5.30;;
52396;SDS011;38322;53.108;6.308;2023-11-19T14:56:54;28.92;;;7.15;;
52396;SDS011;38322;53.108;6.308;2023-11-19T14:59:20;28.80;;;5.07;;
52396;SDS011;38322;53.108;6.308;2023-11-19T15:01:46;29.55;;;5.68;;
52396;SDS011;38322;53.108;6.308;2023-11-19T15:04:12;22.40;;;4.72;;
52396;SDS011;38322;53.108;6.308;2023-11-19T15:06:38;22.85;;;5.40;;
52396;SDS011;38322;53.108;6.308;2023-11-19T15:09:04;26.55;;;5.00;;
52396;SDS011;38322;53.108;6.308;2023-11-19T15:11:32;17.67;;;3.50;;
52396;SDS011;38322;53.108;6.308;2023-11-19T15:13:58;21.38;;;3.22;;
52396;SDS011;38322;53.108;6.308;2023-11-19T15:16:25;27.00;;;4.75;;
52396;SDS011;38322;53.108;6.308;2023-11-19T15:18:57;34.80;;;7.40;;
52396;SDS011;38322;53.108;6.308;2023-11-19T15:21:25;24.08;;;5.57;;
52396;SDS011;38322;53.108;6.308;2023-11-19T15:23:52;28.95;;;4.45;;
52396;SDS011;38322;53.108;6.308;2023-11-19T15:26:18;21.15;;;4.35;;
52396;SDS011;38322;53.108;6.308;2023-11-19T15:28:44;23.95;;;4.40;;
52396;SDS011;38322;53.108;6.308;2023-11-19T15:31:10;22.77;;;4.30;;
52396;SDS011;38322;53.108;6.308;2023-11-19T15:33:36;25.65;;;6.38;;
52396;SDS011;38322;53.108;6.308;2023-11-19T15:36:02;23.70;;;5.47;;
52396;SDS011;38322;53.108;6.308;2023-11-19T15:38:33;34.08;;;5.50;;
52396;SDS011;38322;53.108;6.308;2023-11-19T15:40:59;30.42;;;5.07;;
52396;SDS011;38322;53.108;6.308;2023-11-19T15:43:25;28.92;;;6.22;;
52396;SDS011;38322;53.108;6.308;2023-11-19T15:45:51;27.60;;;4.43;;
52396;SDS011;38322;53.108;6.308;2023-11-19T15:48:17;23.95;;;4.45;;
52396;SDS011;38322;53.108;6.308;2023-11-19T15:50:43;24.85;;;5.82;;
52396;SDS011;38322;53.108;6.308;2023-11-19T15:53:10;28.60;;;5.97;;
52396;SDS011;38322;53.108;6.308;2023-11-19T15:55:36;21.08;;;4.88;;
52396;SDS011;38322;53.108;6.308;2023-11-19T15:58:01;22.63;;;4.47;;
52396;SDS011;38322;53.108;6.308;2023-11-19T16:00:28;25.45;;;4.75;;
52396;SDS011;38322;53.108;6.308;2023-11-19T16:02:54;30.75;;;4.65;;
52396;SDS011;38322;53.108;6.308;2023-11-19T16:05:21;28.88;;;5.43;;
52396;SDS011;38322;53.108;6.308;2023-11-19T16:07:49;19.77;;;4.68;;
52396;SDS011;38322;53.108;6.308;2023-11-19T16:10:15;25.92;;;6.53;;
52396;SDS011;38322;53.108;6.308;2023-11-19T16:12:45;36.03;;;7.25;;
52396;SDS011;38322;53.108;6.308;2023-11-19T16:15:12;28.27;;;6.90;;
52396;SDS011;38322;53.108;6.308;2023-11-19T16:17:41;27.40;;;5.43;;
52396;SDS011;38322;53.108;6.308;2023-11-19T16:20:07;19.30;;;4.03;;
52396;SDS011;38322;53.108;6.308;2023-11-19T16:22:37;28.48;;;6.05;;
52396;SDS011;38322;53.108;6.308;2023-11-19T16:25:03;24.27;;;5.13;;
52396;SDS011;38322;53.108;6.308;2023-11-19T16:27:29;21.27;;;5.35;;
52396;SDS011;38322;53.108;6.308;2023-11-19T16:29:55;32.22;;;6.13;;
52396;SDS011;38322;53.108;6.308;2023-11-19T16:32:21;34.95;;;5.05;;
52396;SDS011;38322;53.108;6.308;2023-11-19T16:34:47;32.55;;;5.90;;
52396;SDS011;38322;53.108;6.308;2023-11-19T16:37:16;37.22;;;6.35;;
52396;SDS011;38322;53.108;6.308;2023-11-19T16:39:42;32.75;;;7.25;;
52396;SDS011;38322;53.108;6.308;2023-11-19T16:42:09;28.77;;;5.70;;
52396;SDS011;38322;53.108;6.308;2023-11-19T16:44:35;23.25;;;4.68;;
52396;SDS011;38322;53.108;6.308;2023-11-19T16:47:01;27.20;;;5.93;;
52396;SDS011;38322;53.108;6.308;2023-11-19T16:49:28;25.90;;;5.97;;
52396;SDS011;38322;53.108;6.308;2023-11-19T16:51:56;22.73;;;5.55;;
52396;SDS011;38322;53.108;6.308;2023-11-19T16:54:23;19.50;;;3.70;;
52396;SDS011;38322;53.108;6.308;2023-11-19T16:56:49;30.13;;;4.63;;
52396;SDS011;38322;53.108;6.308;2023-11-19T16:59:14;24.45;;;4.35;;
52396;SDS011;38322;53.108;6.308;2023-11-19T17:01:40;24.95;;;5.05;;
52396;SDS011;38322;53.108;6.308;2023-11-19T17:04:06;26.30;;;6.22;;
52396;SDS011;38322;53.108;6.308;2023-11-19T17:06:33;23.10;;;5.00;;
52396;SDS011;38322;53.108;6.308;2023-11-19T17:09:00;16.27;;;3.83;;
52396;SDS011;38322;53.108;6.308;2023-11-19T17:11:26;23.90;;;5.32;;
52396;SDS011;38322;53.108;6.308;2023-11-19T17:13:52;18.08;;;3.90;;
52396;SDS011;38322;53.108;6.308;2023-11-19T17:16:18;19.67;;;3.78;;
52396;SDS011;38322;53.108;6.308;2023-11-19T17:18:44;19.02;;;3.70;;
52396;SDS011;38322;53.108;6.308;2023-11-19T17:21:10;24.48;;;6.75;;
52396;SDS011;38322;53.108;6.308;2023-11-19T17:23:36;20.83;;;4.88;;
52396;SDS011;38322;53.108;6.308;2023-11-19T17:26:03;26.75;;;6.40;;
52396;SDS011;38322;53.108;6.308;2023-11-19T17:28:30;32.15;;;7.15;;
52396;SDS011;38322;53.108;6.308;2023-11-19T17:30:59;29.30;;;4.68;;
52396;SDS011;38322;53.108;6.308;2023-11-19T17:33:25;21.58;;;6.35;;
52396;SDS011;38322;53.108;6.308;2023-11-19T17:35:51;27.85;;;5.00;;
52396;SDS011;38322;53.108;6.308;2023-11-19T17:38:17;31.42;;;5.55;;
52396;SDS011;38322;53.108;6.308;2023-11-19T17:40:45;28.30;;;5.75;;
52396;SDS011;38322;53.108;6.308;2023-11-19T17:43:12;35.72;;;5.70;;
52396;SDS011;38322;53.108;6.308;2023-11-19T17:45:40;27.52;;;4.45;;
52396;SDS011;38322;53.108;6.308;2023-11-19T17:48:06;37.63;;;4.95;;
52396;SDS011;38322;53.108;6.308;2023-11-19T17:50:32;25.25;;;5.25;;
52396;SDS011;38322;53.108;6.308;2023-11-19T17:52:59;30.92;;;5.65;;
52396;SDS011;38322;53.108;6.308;2023-11-19T17:55:25;23.90;;;6.50;;
52396;SDS011;38322;53.108;6.308;2023-11-19T17:57:51;40.72;;;6.68;;
52396;SDS011;38322;53.108;6.308;2023-11-19T18:00:16;35.70;;;6.25;;
52396;SDS011;38322;53.108;6.308;2023-11-19T18:02:43;33.15;;;8.65;;
52396;SDS011;38322;53.108;6.308;2023-11-19T18:05:11;29.40;;;5.85;;
52396;SDS011;38322;53.108;6.308;2023-11-19T18:07:37;29.45;;;5.60;;
52396;SDS011;38322;53.108;6.308;2023-11-19T18:10:05;29.30;;;5.10;;
52396;SDS011;38322;53.108;6.308;2023-11-19T18:12:32;34.58;;;6.32;;
52396;SDS011;38322;53.108;6.308;2023-11-19T18:14:58;32.17;;;6.70;;
52396;SDS011;38322;53.108;6.308;2023-11-19T18:17:24;30.75;;;6.10;;
52396;SDS011;38322;53.108;6.308;2023-11-19T18:19:50;25.90;;;6.25;;
52396;SDS011;38322;53.108;6.308;2023-11-19T18:22:16;24.63;;;4.75;;
52396;SDS011;38322;53.108;6.308;2023-11-19T18:24:42;34.58;;;6.63;;
52396;SDS011;38322;53.108;6.308;2023-11-19T18:27:08;25.52;;;4.40;;
52396;SDS011;38322;53.108;6.308;2023-11-19T18:29:33;18.20;;;3.20;;
52396;SDS011;38322;53.108;6.308;2023-11-19T18:32:01;19.67;;;3.95;;
52396;SDS011;38322;53.108;6.308;2023-11-19T18:34:27;28.08;;;5.25;;
52396;SDS011;38322;53.108;6.308;2023-11-19T18:36:53;21.85;;;4.32;;
52396;SDS011;38322;53.108;6.308;2023-11-19T18:39:19;24.95;;;4.28;;
52396;SDS011;38322;53.108;6.308;2023-11-19T18:41:45;25.23;;;3.08;;
52396;SDS011;38322;53.108;6.308;2023-11-19T18:44:10;16.88;;;4.15;;
52396;SDS011;38322;53.108;6.308;2023-11-19T18:46:38;20.15;;;3.85;;
52396;SDS011;38322;53.108;6.308;2023-11-19T18:49:04;28.08;;;6.60;;
52396;SDS011;38322;53.108;6.308;2023-11-19T18:51:31;19.58;;;4.88;;
52396;SDS011;38322;53.108;6.308;2023-11-19T18:53:57;17.25;;;2.95;;
52396;SDS011;38322;53.108;6.308;2023-11-19T18:56:23;13.75;;;2.72;;
52396;SDS011;38322;53.108;6.308;2023-11-19T18:58:50;16.88;;;4.95;;
52396;SDS011;38322;53.108;6.308;2023-11-19T19:01:16;27.17;;;4.47;;
52396;SDS011;38322;53.108;6.308;2023-11-19T19:03:43;11.20;;;3.33;;
52396;SDS011;38322;53.108;6.308;2023-11-19T19:06:09;19.85;;;3.08;;
52396;SDS011;38322;53.108;6.308;2023-11-19T19:08:35;20.63;;;3.80;;
52396;SDS011;38322;53.108;6.308;2023-11-19T19:11:01;13.98;;;3.50;;
52396;SDS011;38322;53.108;6.308;2023-11-19T19:13:27;14.77;;;2.88;;
52396;SDS011;38322;53.108;6.308;2023-11-19T19:15:53;22.63;;;5.03;;
52396;SDS011;38322;53.108;6.308;2023-11-19T19:18:19;13.77;;;2.60;;
52396;SDS011;38322;53.108;6.308;2023-11-19T19:20:45;13.07;;;2.55;;
52396;SDS011;38322;53.108;6.308;2023-11-19T19:23:11;17.35;;;3.35;;
52396;SDS011;38322;53.108;6.308;2023-11-19T19:25:37;20.73;;;3.67;;
52396;SDS011;38322;53.108;6.308;2023-11-19T19:28:03;14.25;;;3.72;;
52396;SDS011;38322;53.108;6.308;2023-11-19T19:30:31;16.58;;;3.58;;
52396;SDS011;38322;53.108;6.308;2023-11-19T19:32:57;16.88;;;2.85;;
52396;SDS011;38322;53.108;6.308;2023-11-19T19:35:23;17.25;;;3.05;;
52396;SDS011;38322;53.108;6.308;2023-11-19T19:37:55;14.13;;;2.72;;
52396;SDS011;38322;53.108;6.308;2023-11-19T19:40:22;15.65;;;2.88;;
52396;SDS011;38322;53.108;6.308;2023-11-19T19:42:48;16.83;;;2.47;;
52396;SDS011;38322;53.108;6.308;2023-11-19T19:45:15;14.45;;;2.90;;
52396;SDS011;38322;53.108;6.308;2023-11-19T19:47:41;12.38;;;3.80;;
52396;SDS011;38322;53.108;6.308;2023-11-19T19:50:07;11.50;;;2.17;;
52396;SDS011;38322;53.108;6.308;2023-11-19T19:52:39;12.10;;;2.55;;
52396;SDS011;38322;53.108;6.308;2023-11-19T19:55:05;7.00;;;1.98;;
52396;SDS011;38322;53.108;6.308;2023-11-19T19:57:33;16.50;;;4.03;;
52396;SDS011;38322;53.108;6.308;2023-11-19T19:59:59;9.48;;;2.53;;
52396;SDS011;38322;53.108;6.308;2023-11-19T20:02:26;13.43;;;2.53;;
52396;SDS011;38322;53.108;6.308;2023-11-19T20:04:54;9.45;;;1.80;;
52396;SDS011;38322;53.108;6.308;2023-11-19T20:07:20;12.52;;;2.00;;
52396;SDS011;38322;53.108;6.308;2023-11-19T20:09:46;9.70;;;1.60;;
52396;SDS011;38322;53.108;6.308;2023-11-19T20:12:12;10.25;;;1.60;;
52396;SDS011;38322;53.108;6.308;2023-11-19T20:14:39;9.82;;;1.80;;
52396;SDS011;38322;53.108;6.308;2023-11-19T20:17:05;6.38;;;1.48;;
52396;SDS011;38322;53.108;6.308;2023-11-19T20:19:33;10.68;;;2.70;;
52396;SDS011;38322;53.108;6.308;2023-11-19T20:21:59;9.82;;;2.72;;
52396;SDS011;38322;53.108;6.308;2023-11-19T20:24:25;9.88;;;1.73;;
52396;SDS011;38322;53.108;6.308;2023-11-19T20:26:51;12.82;;;2.60;;
52396;SDS011;38322;53.108;6.308;2023-11-19T20:29:18;5.88;;;2.15;;
52396;SDS011;38322;53.108;6.308;2023-11-19T20:31:44;10.52;;;2.15;;
52396;SDS011;38322;53.108;6.308;2023-11-19T20:34:11;13.15;;;1.92;;
52396;SDS011;38322;53.108;6.308;2023-11-19T20:36:37;12.25;;;2.90;;
52396;SDS011;38322;53.108;6.308;2023-11-19T20:39:03;8.25;;;2.58;;
52396;SDS011;38322;53.108;6.308;2023-11-19T20:41:29;9.65;;;1.90;;
52396;SDS011;38322;53.108;6.308;2023-11-19T20:43:55;15.40;;;1.98;;
52396;SDS011;38322;53.108;6.308;2023-11-19T20:46:20;6.00;;;1.70;;
52396;SDS011;38322;53.108;6.308;2023-11-19T20:48:47;5.30;;;1.55;;
52396;SDS011;38322;53.108;6.308;2023-11-19T20:51:15;7.22;;;1.33;;
52396;SDS011;38322;53.108;6.308;2023-11-19T20:53:41;6.18;;;1.10;;
52396;SDS011;38322;53.108;6.308;2023-11-19T20:56:07;8.98;;;1.30;;
52396;SDS011;38322;53.108;6.308;2023-11-19T20:58:33;12.02;;;1.85;;
